ADDS METAR Data INFO
IDs: Format: Raw Decoded Include TAF

Data at: 0151 UTC 21 Apr 2018

KEAN 210135Z AUTO 09008KT 10SM -DZ OVC012 04/02 A3009 RMK AO2 T00400022
KEAN 210115Z AUTO 10011KT 10SM OVC012 04/02 A3008 RMK AO2 T00380020
KEAN 210055Z AUTO 09011KT 7SM OVC012 04/02 A3008 RMK AO2 T00400021
KEAN 210035Z AUTO 10013KT 10SM -DZ OVC012 04/02 A3007 RMK AO2 T00400020
KEAN 210015Z AUTO 09012G17KT 7SM OVC012 04/02 A3008 RMK AO2 T00410020
KEAN 202355Z AUTO 09013KT 10SM OVC012 04/02 A3007 RMK AO2 T00430016 10126 20043
KEAN 202335Z AUTO 09014G20KT 10SM OVC012 05/02 A3006 RMK AO2 T00450015
KEAN 202315Z AUTO 09017G20KT 10SM BKN012 OVC021 05/01 A3005 RMK AO2 T00470012
KEAN 202255Z AUTO 08017G24KT 10SM BKN021 OVC030 05/01 A3005 RMK AO2 T00490010
KEAN 202235Z AUTO 07016G21KT 10SM SCT020 BKN028 OVC033 06/01 A3003 RMK AO2 T00580011
KEAN 202215Z AUTO 07017G22KT 10SM SCT023 BKN032 OVC060 06/01 A3002 RMK AO2 T00610010
KEAN 202155Z AUTO 06015G19KT 10SM SCT023 BKN060 OVC070 07/01 A3001 RMK AO2 T00700011
KEAN 202135Z AUTO 07016KT 10SM SCT047 SCT050 OVC070 08/01 A3000 RMK AO2 T00750010
KEAN 202115Z AUTO 08019G28KT 10SM SCT027 BKN050 OVC070 08/01 A3000 RMK AO2 T00780009
KEAN 202055Z AUTO 06019G26KT 10SM SCT029 SCT038 OVC050 10/01 A2999 RMK AO2 T00980010
KEAN 202035Z AUTO 07021G28KT 10SM OVC050 10/01 A2999 RMK AO2 T01020010
KEAN 202015Z AUTO 08021G30KT 10SM OVC050 10/01 A2998 RMK AO2 T01040008
KEAN 201955Z AUTO 07023G28KT 10SM OVC050 11/00 A2997 RMK AO2 T01120001
KEAN 201935Z AUTO 07018G24KT 10SM OVC050 12/00 A2997 RMK AO2 T01211005
KEAN 201915Z AUTO 06013G22KT 10SM OVC048 12/00 A2997 RMK AO2 T01161005
KEAN 201855Z AUTO 04013G19KT 10SM BKN048 BKN100 12/M01 A2997 RMK AO2 LTG DSNT SE T01171008
KEAN 201835Z AUTO 01006KT 10SM -DZ SCT035 SCT044 BKN070 12/00 A2997 RMK AO2 T01161002
KEAN 201815Z AUTO 04006KT 10SM SCT050 BKN080 OVC090 10/M01 A2999 RMK AO2 T00961007
KEAN 201755Z AUTO 07006KT 10SM SCT060 BKN090 08/M01 A3001 RMK AO2 T00791011 10082 20013
KEAN 201735Z AUTO 07009KT 10SM SCT065 BKN070 BKN090 08/M01 A3001 RMK AO2 T00811007
KEAN 201715Z AUTO 07007KT 10SM SCT050 SCT060 BKN090 07/M01 A3002 RMK AO2 T00691010
KEAN 201655Z AUTO 07009KT 10SM SCT065 BKN090 OVC110 07/M01 A3002 RMK AO2 T00651012
KEAN 201635Z AUTO 10008KT 10SM SCT050 BKN075 BKN090 06/M01 A3002 RMK AO2 LTG DSNT SE T00581014
KEAN 201615Z AUTO 08006KT 10SM SCT050 BKN080 OVC090 04/M02 A3002 RMK AO2 T00431018
KEAN 201555Z AUTO 08009KT 10SM SCT090 BKN120 04/M02 A3002 RMK AO2 T00431020
KEAN 201535Z AUTO 09008KT 10SM SCT120 05/M02 A3002 RMK AO2 T00471021
KEAN 201515Z AUTO 08009KT 10SM CLR 05/M02 A3003 RMK AO2 T00491020
KEAN 201455Z AUTO 06011KT 10SM SCT120 05/M02 A3004 RMK AO2 LTG DSNT SE T00461021
KEAN 201435Z AUTO 07011KT 10SM BKN120 05/M02 A3003 RMK AO2 LTG DSNT SE AND S T00461022
KEAN 201415Z AUTO 07010KT 10SM SCT095 OVC110 04/M02 A3003 RMK AO2 T00391021
KEAN 201355Z AUTO 07010KT 10SM SCT070 OVC100 04/M02 A3003 RMK AO2 T00351021
KEAN 201335Z AUTO 07012G16KT 10SM OVC110 03/M02 A3002 RMK AO2 T00301022
KEAN 201315Z AUTO 07011KT 10SM OVC100 03/M02 A3002 RMK AO2 T00281025
KEAN 201255Z AUTO 08013KT 10SM SCT070 BKN100 BKN120 03/M03 A3001 RMK AO2 T00261026
KEAN 201235Z AUTO 07008KT 10SM SCT120 02/M03 A3001 RMK AO2 T00181026
KEAN 201215Z AUTO 03003KT 10SM CLR 02/M03 A3001 RMK AO2 T00151029
KEAN 201155Z AUTO 04005KT 10SM CLR 02/M03 A3001 RMK AO2 T00161030 10075 20016
KEAN 201135Z AUTO 06008KT 10SM CLR 02/M03 A3001 RMK AO2 T00191031
KEAN 201115Z AUTO 07012KT 10SM CLR 02/M03 A3000 RMK AO2 T00191030
KEAN 201055Z AUTO 04007KT 10SM CLR 02/M03 A3001 RMK AO2 T00221031
KEAN 201035Z AUTO 05008KT 10SM CLR 02/M03 A3001 RMK AO2 T00211030
KEAN 201015Z AUTO 06010KT 10SM CLR 02/M03 A3000 RMK AO2 T00231030
KEAN 200955Z AUTO 06010KT 10SM CLR 03/M03 A3000 RMK AO2 T00251030
KEAN 200935Z AUTO 04007KT 10SM CLR 03/M03 A3001 RMK AO2 T00271030
KEAN 200915Z AUTO 07010KT 10SM CLR 03/M03 A3001 RMK AO2 T00301030
KEAN 200855Z AUTO 04010KT 10SM CLR 03/M03 A3001 RMK AO2 T00301030
KEAN 200835Z AUTO 05010KT 10SM CLR 04/M03 A3001 RMK AO2 T00371030
KEAN 200815Z AUTO 05012KT 10SM CLR 04/M03 A3001 RMK AO2 T00361028
KEAN 200755Z AUTO 06010G20KT 10SM CLR 04/M03 A3001 RMK AO2 T00441028
KEAN 200735Z AUTO 06011KT 10SM SCT120 05/M02 A3002 RMK AO2 T00461025
KEAN 200715Z AUTO 05010KT 10SM SCT120 06/M02 A3003 RMK AO2 T00551022
KEAN 200655Z AUTO 07010KT 10SM SCT120 06/M02 A3004 RMK AO2 T00611023 401861036
KEAN 200635Z AUTO 07012KT 10SM CLR 07/M02 A3003 RMK AO2 T00651023
KEAN 200615Z AUTO 06009KT 10SM CLR 07/M03 A3004 RMK AO2 T00671027
KEAN 200555Z AUTO 08009KT 10SM CLR 08/M03 A3004 RMK AO2 T00761031 10171 20075
KEAN 200535Z AUTO 09012G16KT 10SM CLR 08/M03 A3003 RMK AO2 T00771031
KEAN 200515Z AUTO 09010KT 10SM CLR 08/M03 A3003 RMK AO2 T00761031
KEAN 200455Z AUTO 07008KT 10SM CLR 08/M03 A3003 RMK AO2 T00781032
KEAN 200435Z AUTO 09009KT 10SM CLR 09/M04 A3003 RMK AO2 T00861036
KEAN 200415Z AUTO 08012G18KT 10SM CLR 09/M04 A3003 RMK AO2 T00851036
KEAN 200355Z AUTO 06008KT 10SM CLR 09/M04 A3003 RMK AO2 T00851037
KEAN 200335Z AUTO 05007KT 10SM CLR 09/M04 A3003 RMK AO2 T00921040
KEAN 200315Z AUTO 04006KT 10SM CLR 10/M04 A3003 RMK AO2 T00981041
KEAN 200255Z AUTO 03003KT 10SM CLR 10/M04 A3003 RMK AO2 T00971043
KEAN 200235Z AUTO 05009KT 10SM CLR 11/M05 A3002 RMK AO2 T01051046
KEAN 200215Z AUTO 05006KT 10SM CLR 11/M05 A3001 RMK AO2 T01121048
KEAN 200155Z AUTO 08011G17KT 10SM CLR 12/M05 A3001 RMK AO2 T01221050
KEAN 200135Z AUTO 09012G15KT 10SM CLR 13/M05 A3001 RMK AO2 T01301050
KEAN 200115Z AUTO 09016G21KT 10SM CLR 14/M05 A3001 RMK AO2 T01401049
KEAN 200055Z AUTO 09016G21KT 10SM CLR 15/M05 A3000 RMK AO2 T01471050
KEAN 200035Z AUTO 09013G26KT 10SM CLR 16/M06 A3000 RMK AO2 T01561060
KEAN 200015Z AUTO 10016G26KT 10SM CLR 17/M07 A3000 RMK AO2 T01661070
KEAN 192355Z AUTO 11016G27KT 10SM CLR 17/M08 A3000 RMK AO2 T01721078 10186 20141
KEAN 192335Z AUTO 10021G24KT 10SM CLR 17/M07 A3000 RMK AO2 T01691066
KEAN 192315Z AUTO 09022G31KT 10SM CLR 17/M06 A3000 RMK AO2 T01721065
KEAN 192255Z AUTO 10022G28KT 10SM CLR 17/M07 A3001 RMK AO2 T01731072
KEAN 192235Z AUTO 09024G30KT 10SM CLR 18/M06 A3002 RMK AO2 T01751063
KEAN 192215Z AUTO 11020G29KT 10SM CLR 18/M07 A3002 RMK AO2 T01821072
KEAN 192155Z AUTO 11017G24KT 10SM CLR 18/M08 A3003 RMK AO2 T01761077
KEAN 192130Z AUTO 10018G26KT 10SM CLR 17/M07 A3003 RMK AO2 T01731075
KEAN 192115Z AUTO 10021G30KT 10SM CLR 17/M08 A3004 RMK AO2 T01731084
KEAN 192055Z AUTO 11019G29KT 10SM CLR 18/M08 A3005 RMK AO2 T01761083
KEAN 192035Z AUTO 09021G28KT 10SM CLR 18/M07 A3006 RMK AO2 T01801075
KEAN 192015Z AUTO 11020G33KT 10SM CLR 18/M08 A3008 RMK AO2 T01761080
KEAN 191950Z AUTO 09021G32KT 10SM CLR 17/M07 A3009 RMK AO2 T01681067
KEAN 191930Z AUTO 10022G27KT 10SM CLR 17/M06 A3011 RMK AO2 T01691064
KEAN 191910Z AUTO 12019G29KT 10SM CLR 16/M07 A3012 RMK AO2 T01641069
KEAN 191850Z AUTO 11019G24KT 10SM CLR 16/M07 A3013 RMK AO2 T01561072
KEAN 191835Z AUTO 10020G27KT 10SM CLR 15/M08 A3014 RMK AO2 T01501078
KEAN 191815Z AUTO 11022G31KT 10SM CLR 15/M08 A3015 RMK AO2 T01461078
KEAN 191800Z AUTO 12021G28KT 10SM CLR 15/M07 A3016 RMK AO2 T01451073
KEAN 191735Z AUTO 11022G30KT 10SM CLR 14/M08 A3018 RMK AO2 T01351077
KEAN 191715Z AUTO 12019G30KT 10SM CLR 12/M08 A3018 RMK AO2 T01231079
KEAN 191700Z AUTO 11018KT 10SM CLR 12/M08 A3019 RMK AO2 T01171079
KEAN 191610Z AUTO 13019KT 10SM CLR 11/M07 A3020 RMK AO2 T01111075
KEAN 191550Z AUTO 10SM CLR 08/M04 A3021 RMK AO2 T00831044
KEAN 191530Z AUTO 07012KT 10SM CLR 08/M04 A3022 RMK AO2 T00771040
KEAN 191515Z AUTO 10017G22KT 10SM CLR 08/M06 A3023 RMK AO2 T00791061
KEAN 191450Z AUTO 12012G18KT 10SM CLR 07/M05 A3024 RMK AO2 T00671052
KEAN 191415Z AUTO 12007KT 10SM CLR 04/M05 A3026 RMK AO2 T00381048